Nearby METAR Reports

 

KMTN - Baltimore/Martin, Maryland, USA
Distance from station: SSE 8mi, 13km
Updated: Sun, 01-Feb-2015 3:50pm EST
Mostly cloudy
Mostly cloudy
 Wind from SE
Wind: SE 6 mph , 9 km/h
Temperature: 36°F , 2°C
Wind Chill: 31°F , -1°C
Dew Point: 28°F , -2°C
Humidity: 75%
Barometer: 30.15 inHg , 1021 hPa
Clouds: Mostly cloudy
Visibility: 10 miles , 16 km
Cloud details: Partly cloudy 5000 ft
Mostly cloudy 10000 ft
2015/02/01 20:50 KMTN 012050Z 14005KT 10SM SCT050 BKN100 02/M02 A3015
KDMH - Baltimore/Dwntwn, Maryland, USA
Distance from station: SW 12mi, 19km
Updated: Sun, 01-Feb-2015 3:54pm EST

 
Temperature: 37°F , 3°C
Dew Point: 19°F , -7°C
Humidity: 48%
Barometer: 30.12 inHg , 1020 hPa
2015/02/01 20:54 KDMH 012054Z AUTO 03/M07 A3012 RMK AO1 SLP198 T00281067 56026
 
KBWI - Balto/Wash Intl, Maryland, USA
Distance from station: SSW 20mi, 33km
Updated: Sun, 01-Feb-2015 3:54pm EST
Overcast
Overcast
 Wind from calm
Wind: Calm
Temperature: 37°F , 3°C
Dew Point: 19°F , -7°C
Humidity: 48%
Barometer: 30.11 inHg , 1019.6 hPa
Clouds: Overcast
Visibility: 10 miles , 16 km
Cloud details: Mostly cloudy 4700 ft
Mostly cloudy 6500 ft
Overcast 12000 ft
2015/02/01 20:54 KBWI 012054Z 00000KT 10SM BKN047 BKN065 OVC120 03/M07 A3011 RMK AO2 SLP198 VIRGA DSNT W T00281072 56024
KDMW - Carroll Cnty, Maryland, USA
Distance from station: WNW 30mi, 48km
Updated: Sun, 01-Feb-2015 3:55pm EST
Mostly cloudy
Mostly cloudy
 Wind from S
Wind: S 8 mph , 13 km/h
Temperature: 36°F , 2°C
Wind Chill: 30°F , -1°C
Dew Point: 18°F , -8°C
Humidity: 48%
Barometer: 30.07 inHg , 1018.3 hPa
Clouds: Mostly cloudy
Visibility: 10 miles , 16 km
Cloud details: Mostly cloudy 2700 ft
Mostly cloudy 3700 ft
2015/02/01 20:55 KDMW 012055Z AUTO 19007KT 10SM BKN027 BKN037 02/M08 A3007 RMK AO2
 
KNAK - Annapolis/Naval, Maryland, USA
Distance from station: S 30mi, 48km
Updated: Sun, 01-Feb-2015 3:54pm EST
Overcast
Overcast
 Wind from S
Wind: S 14 mph , 22 km/h, Gust: 20 mph , 31 km/h
Temperature: 37°F , 3°C
Wind Chill: 28°F , -2°C
Dew Point: 18°F , -8°C
Humidity: 45%
Barometer: 30.12 inHg , 1020 hPa
Clouds: Overcast
Visibility: 10 miles , 16 km
Cloud details: Overcast 6000 ft
2015/02/01 20:54 KNAK 012054Z AUTO 18012G17KT 10SM OVC060 03/M08 A3012 RMK AO2 SLP202 T00331078 56028
KW29 - Stevensville, Maryland, USA
Distance from station: SSE 31mi, 50km
Updated: Sun, 01-Feb-2015 3:56pm EST

 Wind from SSE
Wind: SSE 9 mph , 15 km/h
Temperature: 37°F , 3°C
Wind Chill: 30°F , -1°C
Dew Point: 18°F , -8°C
Humidity: 45%
Barometer: 30.13 inHg , 1020.3 hPa
Visibility: 10 miles , 16 km
2015/02/01 20:56 KW29 012056Z AUTO 16008KT 10SM 03/M08 A3013 RMK AO1
 
KCGS - College Park, Maryland, USA
Distance from station: SW 38mi, 61km
Updated: Sun, 01-Feb-2015 3:55pm EST
Mostly cloudy
Mostly cloudy
 Wind from SSE
Wind: SSE 5 mph , 7 km/h
Temperature: 41°F , 5°C
Wind Chill: 38°F , 3°C
Dew Point: 14°F , -10°C
Humidity: 33%
Barometer: 30.10 inHg , 1019.3 hPa
Clouds: Mostly cloudy
Visibility: 10 miles , 16 km
Cloud details: Partly cloudy 4900 ft
Partly cloudy 5500 ft
Mostly cloudy 8500 ft
2015/02/01 20:55 KCGS 012055Z AUTO 15004KT 10SM SCT049 SCT055 BKN085 05/M10 A3010 RMK AO1
KGAI - Gaithersburg, Maryland, USA
Distance from station: WSW 40mi, 65km
Updated: Sun, 01-Feb-2015 3:55pm EST
Mostly cloudy
Mostly cloudy
 Wind from SSE
Wind: SSE 10 mph , 17 km/h
Temperature: 37°F , 3°C
Wind Chill: 30°F , -1°C
Dew Point: 16°F , -9°C
Humidity: 41%
Barometer: 30.12 inHg , 1020 hPa
Clouds: Mostly cloudy
Visibility: 10 miles , 16 km
Cloud details: Few Clouds 3400 ft
Partly cloudy 4300 ft
Mostly cloudy 4900 ft
2015/02/01 20:55 KGAI 012055Z 15009KT 10SM FEW034 SCT043 BKN049 03/M09 A3012 RMK AO1 57027
 
KTHV - York, Pennsylvania, USA
Distance from station: NNW 40mi, 65km
Updated: Sun, 01-Feb-2015 3:53pm EST
Light snow, Overcast
Light snow, Overcast
 Wind from S
Wind: S 9 mph , 15 km/h, Gust: 17 mph , 28 km/h
Temperature: 36°F , 2°C
Wind Chill: 29°F , -2°C
Dew Point: 23°F , -5°C
Humidity: 60%
Barometer: 30.07 inHg , 1018.3 hPa
Summary: Light Snow
Clouds: Overcast
Visibility: 5 miles , 8 km
Cloud details: Overcast 3400 ft
2015/02/01 20:53 KTHV 012053Z AUTO 18008G15KT 5SM -SN OVC034 02/M05 A3007 RMK AO2 SNB45 SLP192 P0000 60000 T00221050 56022
KFDK - Frederick, Maryland, USA
Distance from station: W 47mi, 75km
Updated: Sun, 01-Feb-2015 3:45pm EST
Overcast
Overcast
 Wind from SSW
Wind: SSW 5 mph , 7 km/h
Temperature: 39°F , 4°C
Wind Chill: 35°F , 2°C
Dew Point: 12°F , -11°C
Humidity: 33%
Barometer: 30.12 inHg , 1020 hPa
Clouds: Overcast
Visibility: 10 miles , 16 km
Cloud details: Overcast 3600 ft
2015/02/01 20:45 KFDK 012045Z 20004KT 10SM OVC036 04/M11 A3012
 
KESN - Easton/Newnam, Maryland, USA
Distance from station: SSE 48mi, 78km
Updated: Sun, 01-Feb-2015 3:50pm EST
Overcast
Overcast
 Wind from S
Wind: S 8 mph , 13 km/h
Temperature: 41°F , 5°C
Wind Chill: 36°F , 2°C
Dew Point: 19°F , -7°C
Humidity: 42%
Barometer: 30.16 inHg , 1021.3 hPa
Clouds: Overcast
Visibility: 10 miles , 16 km
Cloud details: Mostly cloudy 7500 ft
Overcast 10000 ft
2015/02/01 20:50 KESN 012050Z 18007KT 10SM BKN075 OVC100 05/M07 A3016
KDCA - Washington/Natl, Washington D.c., USA
Distance from station: SW 49mi, 79km
Updated: Sun, 01-Feb-2015 3:52pm EST
Overcast
Overcast
 Wind from S
Wind: S 5 mph , 7 km/h
Temperature: 43°F , 6°C
Wind Chill: 40°F , 4°C
Dew Point: 19°F , -7°C
Humidity: 39%
Barometer: 30.12 inHg , 1020 hPa
Clouds: Overcast
Visibility: 10 miles , 16 km
Cloud details: Partly cloudy 7000 ft
Overcast 9500 ft
2015/02/01 20:52 KDCA 012052Z 18004KT 10SM SCT070 OVC095 06/M07 A3012 RMK AO2 SLP198 T00561072 56027
 
KLNS - Lancaster, Pennsylvania, USA
Distance from station: N 49mi, 79km
Updated: Sun, 01-Feb-2015 3:53pm EST
Mostly cloudy
Mostly cloudy
 Wind from ENE
Wind: ENE 8 mph , 13 km/h
Temperature: 36°F , 2°C
Wind Chill: 30°F , -1°C
Dew Point: 25°F , -4°C
Humidity: 65%
Barometer: 30.08 inHg , 1018.6 hPa
Clouds: Mostly cloudy
Visibility: 9 miles , 14 km
Cloud details: Mostly cloudy 4000 ft
2015/02/01 20:53 KLNS 012053Z 07007KT 9SM BKN040 02/M04 A3008 RMK AO2 SLP191 T00171039 56024
KILG - Wilmington, Delaware, USA
Distance from station: ENE 50mi, 81km
Updated: Sun, 01-Feb-2015 3:51pm EST
Partly cloudy
Partly cloudy
 Wind from S
Wind: S 8 mph , 13 km/h
Temperature: 39°F , 4°C
Wind Chill: 33°F , 1°C
Dew Point: 21°F , -6°C
Humidity: 48%
Barometer: 30.13 inHg , 1020.3 hPa
Clouds: Partly cloudy
Visibility: 10 miles , 16 km
Cloud details: Few Clouds 4400 ft
Partly cloudy 7500 ft
2015/02/01 20:51 KILG 012051Z 19007KT 10SM FEW044 SCT075 04/M06 A3013 RMK AO2 SLP204 T00441061 58020